< < Back
Terminal Aerodrome Forecast


Current Version              Previous Versions:   1  2  3  4  5  6  7  8  9  

Terminal Aerodrome Forecast

149
FTUS42 KMLB 302339
TAFMCO
TAF
KMCO 302339Z 3100/3124 15010KT P6SM VCTS SCT050CB SCT120 BKN250
     FM310400 19002KT P6SM FEW030 BKN120
     FM310600 20002KT P6SM FEW010 SCT250
     FM311400 26005KT P6SM SCT035
     FM312000 24005KT P6SM VCTS SCT035CB BKN250=



Latest METAR

674
SAUS70 KWBC 310000 RRF
MTRMCO
METAR KMCO 302353Z 21005KT 10SM FEW050 BKN140 BKN250 27/19 A2996 RMK AO2
SLP142 60000 T02670194 10328 20267 53011 $


USA.gov is the U.S. government's official web portal to all federal, state and local government web resources and services.